createdAt,value
2023-02-18T00:03:23.024Z,64
2023-02-18T00:05:03.962Z,64
2023-02-18T00:06:05.593Z,64
2023-02-18T00:08:23.053Z,64
2023-02-18T00:10:03.548Z,64
2023-02-18T00:11:05.866Z,64
2023-02-18T00:12:08.301Z,64
2023-02-18T00:13:10.581Z,64
2023-02-18T00:14:12.894Z,64
2023-02-18T00:15:14.338Z,63
2023-02-18T00:16:15.948Z,63
2023-02-18T00:17:18.109Z,63
2023-02-18T00:18:20.008Z,63
2023-02-18T00:19:21.406Z,63
2023-02-18T00:20:22.810Z,63
2023-02-18T00:21:24.228Z,64
2023-02-18T00:22:25.699Z,64
2023-02-18T00:23:27.120Z,63
2023-02-18T00:25:04.342Z,64
2023-02-18T00:26:07.096Z,64
2023-02-18T00:27:09.469Z,64
2023-02-18T00:28:11.909Z,64
2023-02-18T00:29:14.199Z,64
2023-02-18T00:30:15.655Z,64
2023-02-18T00:31:18.007Z,64
2023-02-18T00:32:33.752Z,64
2023-02-18T00:33:36.273Z,64
2023-02-18T00:34:38.549Z,64
2023-02-18T00:35:40.830Z,64
2023-02-18T00:36:43.848Z,64
2023-02-18T00:37:46.273Z,64
2023-02-18T00:39:13.823Z,63
2023-02-18T00:40:15.260Z,63
2023-02-18T00:43:23.817Z,63
2023-02-18T00:44:25.227Z,64
2023-02-18T00:48:22.969Z,64
2023-02-18T00:49:24.447Z,64
2023-02-18T00:50:54.046Z,64
2023-02-18T00:51:56.322Z,64
2023-02-18T00:52:58.576Z,64
2023-02-18T00:54:00.898Z,64
2023-02-18T00:55:02.999Z,64
2023-02-18T00:56:44.438Z,64
2023-02-18T00:57:46.731Z,64
2023-02-18T00:58:49.008Z,64
2023-02-18T00:59:51.430Z,64
2023-02-18T01:00:54.637Z,64
2023-02-18T01:04:14.247Z,64
2023-02-18T01:05:54.358Z,64
2023-02-18T01:06:56.569Z,64
2023-02-18T01:07:58.858Z,64
2023-02-18T01:09:14.049Z,64
2023-02-18T01:10:18.326Z,64
2023-02-18T01:11:21.370Z,64
2023-02-18T01:12:22.781Z,64
2023-02-18T01:13:24.200Z,64
2023-02-18T01:15:03.121Z,64
2023-02-18T01:16:05.488Z,64
2023-02-18T01:17:32.991Z,64
2023-02-18T01:18:35.252Z,64
2023-02-18T01:19:36.671Z,64
2023-02-18T01:20:39.052Z,64
2023-02-18T01:21:41.423Z,64
2023-02-18T01:22:42.846Z,64
2023-02-18T01:23:44.274Z,64
2023-02-18T01:24:46.642Z,64
2023-02-18T01:25:53.061Z,64
2023-02-18T01:26:54.483Z,64
2023-02-18T01:29:13.143Z,64
2023-02-18T01:30:14.568Z,64
2023-02-18T01:32:33.234Z,64
2023-02-18T01:33:35.556Z,64
2023-02-18T01:35:02.995Z,64
2023-02-18T01:36:05.757Z,64
2023-02-18T01:37:32.933Z,64
2023-02-18T01:38:34.350Z,64
2023-02-18T01:39:35.874Z,64
2023-02-18T01:40:52.955Z,64
2023-02-18T01:41:54.424Z,64
2023-02-18T01:42:55.876Z,64
2023-02-18T01:44:12.929Z,64
2023-02-18T01:45:53.725Z,64
2023-02-18T01:46:55.491Z,64
2023-02-18T01:47:57.913Z,64
2023-02-18T01:48:59.334Z,64
2023-02-18T01:50:00.760Z,64
2023-02-18T01:51:02.177Z,64
2023-02-18T01:52:03.603Z,65
2023-02-18T01:53:23.218Z,65
2023-02-18T01:54:24.620Z,65
2023-02-18T01:55:26.016Z,65
2023-02-18T01:59:14.410Z,65
2023-02-18T02:00:15.832Z,65
2023-02-18T02:02:32.948Z,65
2023-02-18T02:03:34.378Z,65
2023-02-18T02:04:35.849Z,65
2023-02-18T02:05:38.263Z,65
2023-02-18T02:06:40.899Z,65
2023-02-18T02:07:42.394Z,64
2023-02-18T02:08:43.818Z,64
2023-02-18T02:09:45.230Z,65
2023-02-18T02:10:47.509Z,65
2023-02-18T02:12:32.899Z,64
2023-02-18T02:13:34.318Z,64
2023-02-18T02:15:03.237Z,64
2023-02-18T02:16:43.087Z,64
2023-02-18T02:17:44.513Z,64
2023-02-18T02:18:45.877Z,64
2023-02-18T02:19:47.292Z,64
2023-02-18T02:20:48.744Z,64
2023-02-18T02:21:50.151Z,64
2023-02-18T02:22:51.549Z,64
2023-02-18T02:25:03.210Z,64
2023-02-18T02:26:42.898Z,64
2023-02-18T02:30:03.704Z,64
2023-02-18T02:31:06.415Z,64
2023-02-18T02:32:08.617Z,64
2023-02-18T02:33:10.030Z,64
2023-02-18T02:34:12.269Z,64
2023-02-18T02:35:14.634Z,64
2023-02-18T02:36:16.073Z,64
2023-02-18T02:37:18.428Z,64
2023-02-18T02:38:23.684Z,65
2023-02-18T02:39:26.007Z,65
2023-02-18T02:40:28.140Z,65
2023-02-18T02:41:29.518Z,65
2023-02-18T02:43:24.351Z,65
2023-02-18T02:44:26.580Z,65
2023-02-18T02:45:28.530Z,65
2023-02-18T02:47:33.224Z,65
2023-02-18T02:48:34.622Z,65
2023-02-18T02:50:52.899Z,65
2023-02-18T02:51:55.200Z,65
2023-02-18T02:52:57.779Z,65
2023-02-18T02:55:04.399Z,65
2023-02-18T02:56:44.511Z,65
2023-02-18T02:58:23.902Z,65
2023-02-18T02:59:26.252Z,65
2023-02-18T03:00:28.649Z,65
2023-02-18T03:01:30.061Z,65
2023-02-18T03:02:31.497Z,65
2023-02-18T03:03:32.965Z,65
2023-02-18T03:04:34.386Z,65
2023-02-18T03:05:35.820Z,65
2023-02-18T03:06:44.369Z,65
2023-02-18T03:07:46.633Z,65
2023-02-18T03:08:48.106Z,65
2023-02-18T03:09:50.651Z,65
2023-02-18T03:11:43.336Z,65
2023-02-18T03:13:24.660Z,65
2023-02-18T03:14:27.050Z,65
2023-02-18T03:15:29.383Z,65
2023-02-18T03:16:43.791Z,65
2023-02-18T03:18:24.788Z,65
2023-02-18T03:19:27.333Z,65
2023-02-18T03:20:29.658Z,65
2023-02-18T03:21:31.067Z,66
2023-02-18T03:22:32.876Z,66
2023-02-18T03:23:34.224Z,66
2023-02-18T03:24:35.641Z,66
2023-02-18T03:25:37.045Z,66
2023-02-18T03:26:38.461Z,66
2023-02-18T03:28:24.444Z,65
2023-02-18T03:29:26.704Z,65
2023-02-18T03:30:29.195Z,65
2023-02-18T03:31:43.739Z,65
2023-02-18T03:32:46.027Z,65
2023-02-18T03:34:13.783Z,66
2023-02-18T03:35:16.098Z,65
2023-02-18T03:36:17.561Z,65
2023-02-18T03:37:20.084Z,65
2023-02-18T03:38:21.612Z,65
2023-02-18T03:39:23.864Z,65
2023-02-18T03:40:26.160Z,65
2023-02-18T03:41:28.112Z,65
2023-02-18T03:42:30.230Z,65
2023-02-18T03:44:13.785Z,66
2023-02-18T03:45:16.124Z,66
2023-02-18T03:46:18.676Z,66
2023-02-18T03:47:21.184Z,66
2023-02-18T03:48:23.736Z,66
2023-02-18T03:50:54.256Z,66
2023-02-18T03:52:32.828Z,66
2023-02-18T03:54:13.979Z,66
2023-02-18T03:55:16.423Z,66
2023-02-18T03:56:18.940Z,66
2023-02-18T03:57:21.442Z,66
2023-02-18T03:59:13.167Z,66
2023-02-18T04:01:43.998Z,66
2023-02-18T04:02:46.421Z,66
2023-02-18T04:03:47.866Z,66
2023-02-18T04:05:04.223Z,66
2023-02-18T04:06:06.698Z,66
2023-02-18T04:07:33.266Z,66
2023-02-18T04:08:34.646Z,66
2023-02-18T04:09:36.016Z,66
2023-02-18T04:10:37.378Z,66
2023-02-18T04:12:33.650Z,66
2023-02-18T04:13:35.032Z,66
2023-02-18T04:15:03.660Z,66
2023-02-18T04:16:06.333Z,66
2023-02-18T04:18:23.826Z,66
2023-02-18T04:20:53.912Z,66
2023-02-18T04:21:56.412Z,66
2023-02-18T04:22:58.724Z,66
2023-02-18T04:24:01.099Z,66
2023-02-18T04:25:03.384Z,66
2023-02-18T04:26:05.777Z,66
2023-02-18T04:27:08.036Z,66
2023-02-18T04:28:10.480Z,66
2023-02-18T04:29:13.694Z,66
2023-02-18T04:30:18.520Z,66
2023-02-18T04:33:22.896Z,66
2023-02-18T04:34:25.168Z,66
2023-02-18T04:35:54.307Z,66
2023-02-18T04:36:56.569Z,65
2023-02-18T04:37:58.923Z,66
2023-02-18T04:39:13.431Z,66
2023-02-18T04:40:15.675Z,66
2023-02-18T04:41:17.987Z,66
2023-02-18T04:42:34.093Z,65
2023-02-18T04:43:35.546Z,66
2023-02-18T04:44:36.886Z,66
2023-02-18T04:45:38.238Z,66
2023-02-18T04:46:39.595Z,66
2023-02-18T04:47:40.998Z,66
2023-02-18T04:49:14.015Z,66
2023-02-18T04:50:15.428Z,66
2023-02-18T04:52:34.228Z,66
2023-02-18T04:53:36.066Z,66
2023-02-18T04:54:37.448Z,66
2023-02-18T04:55:38.799Z,66
2023-02-18T04:56:40.235Z,66
2023-02-18T04:57:41.620Z,66
2023-02-18T04:58:43.024Z,66
2023-02-18T04:59:44.419Z,66
2023-02-18T05:00:52.845Z,66
2023-02-18T05:02:34.313Z,66
2023-02-18T05:03:36.525Z,66
2023-02-18T05:04:37.976Z,66
2023-02-18T05:05:53.541Z,66
2023-02-18T05:06:54.879Z,66
2023-02-18T05:10:54.628Z,66
2023-02-18T05:11:56.975Z,66
2023-02-18T05:15:53.759Z,66
2023-02-18T05:16:55.264Z,66
2023-02-18T05:17:57.562Z,66
2023-02-18T05:19:13.941Z,66
2023-02-18T05:20:16.288Z,66
2023-02-18T05:22:33.846Z,66
2023-02-18T05:24:14.231Z,66
2023-02-18T05:25:16.554Z,66
2023-02-18T05:26:18.998Z,66
2023-02-18T05:27:34.344Z,66
2023-02-18T05:28:36.616Z,66
2023-02-18T05:29:38.043Z,66
2023-02-18T05:30:39.463Z,66
2023-02-18T05:31:41.014Z,66
2023-02-18T05:32:43.611Z,66
2023-02-18T05:33:45.064Z,66
2023-02-18T05:34:46.481Z,66
2023-02-18T05:35:48.835Z,66
2023-02-18T05:36:50.277Z,66
2023-02-18T05:37:51.694Z,66
2023-02-18T05:38:54.153Z,66
2023-02-18T05:40:04.205Z,66
2023-02-18T05:41:06.545Z,66
2023-02-18T05:42:07.996Z,66
2023-02-18T05:43:10.686Z,66
2023-02-18T05:44:13.792Z,66
2023-02-18T05:45:16.088Z,66
2023-02-18T05:46:42.886Z,66
2023-02-18T05:48:23.287Z,66
2023-02-18T05:49:24.702Z,67
2023-02-18T05:50:26.107Z,67
2023-02-18T05:51:28.369Z,66
2023-02-18T05:52:33.703Z,66
2023-02-18T05:53:36.112Z,66
2023-02-18T05:55:03.988Z,66
2023-02-18T05:56:06.358Z,67
2023-02-18T05:57:08.764Z,66
2023-02-18T05:58:11.109Z,66
2023-02-18T05:59:13.884Z,66
2023-02-18T06:00:54.006Z,66
2023-02-18T06:01:55.421Z,66
2023-02-18T06:02:57.822Z,66
2023-02-18T06:04:00.148Z,66
2023-02-18T06:05:02.795Z,67
2023-02-18T06:06:05.117Z,67
2023-02-18T06:07:07.444Z,67
2023-02-18T06:08:09.745Z,67
2023-02-18T06:09:12.151Z,66
2023-02-18T06:10:13.627Z,66
2023-02-18T06:11:15.912Z,67
2023-02-18T06:13:24.148Z,67
2023-02-18T06:14:26.454Z,67
2023-02-18T06:16:43.034Z,67
2023-02-18T06:17:44.408Z,67
2023-02-18T06:20:53.189Z,67
2023-02-18T06:21:54.594Z,67
2023-02-18T06:22:55.988Z,67
2023-02-18T06:23:57.410Z,67
2023-02-18T06:24:59.753Z,67
2023-02-18T06:26:01.994Z,67
2023-02-18T06:27:04.435Z,67
2023-02-18T06:28:06.864Z,68
2023-02-18T06:29:14.366Z,68
2023-02-18T06:30:16.774Z,68
2023-02-18T06:31:19.191Z,68
2023-02-18T06:32:21.880Z,68
2023-02-18T06:33:24.254Z,68
2023-02-18T06:34:25.772Z,68
2023-02-18T06:35:27.153Z,68
2023-02-18T06:36:43.038Z,68
2023-02-18T06:37:44.499Z,68
2023-02-18T06:39:12.716Z,68
2023-02-18T06:40:14.979Z,68
2023-02-18T06:41:17.230Z,68
2023-02-18T06:42:19.475Z,68
2023-02-18T06:43:21.938Z,68
2023-02-18T06:44:23.394Z,68
2023-02-18T06:45:25.624Z,68
2023-02-18T06:46:43.364Z,68
2023-02-18T06:47:44.758Z,68
2023-02-18T06:48:46.165Z,68
2023-02-18T06:49:47.551Z,68
2023-02-18T06:51:42.965Z,68
2023-02-18T06:53:23.905Z,68
2023-02-18T06:54:26.344Z,68
2023-02-18T06:55:28.599Z,68
2023-02-18T06:56:31.020Z,68
2023-02-18T06:57:33.175Z,68
2023-02-18T06:58:35.498Z,68
2023-02-18T06:59:38.048Z,68
2023-02-18T07:00:53.355Z,68
2023-02-18T07:01:54.809Z,68
2023-02-18T07:02:57.178Z,68
2023-02-18T07:03:59.457Z,68
2023-02-18T07:05:00.895Z,68
2023-02-18T07:06:02.333Z,68
2023-02-18T07:07:04.245Z,68
2023-02-18T07:08:07.454Z,68
2023-02-18T07:09:09.838Z,68
2023-02-18T07:10:11.334Z,68
2023-02-18T07:11:13.724Z,68
2023-02-18T07:13:23.568Z,68
2023-02-18T07:15:03.678Z,68
2023-02-18T07:16:44.104Z,68
2023-02-18T07:17:45.547Z,68
2023-02-18T07:21:55.415Z,68
2023-02-18T07:22:58.185Z,68
2023-02-18T07:24:00.614Z,68
2023-02-18T07:28:23.765Z,68
2023-02-18T07:29:26.344Z,68
2023-02-18T07:30:52.738Z,68
2023-02-18T07:31:54.217Z,68
2023-02-18T07:33:24.563Z,68
2023-02-18T07:34:25.968Z,68
2023-02-18T07:35:53.908Z,68
2023-02-18T07:36:56.186Z,68
2023-02-18T07:37:58.465Z,68
2023-02-18T07:39:01.068Z,68
2023-02-18T07:40:03.900Z,68
2023-02-18T07:41:05.441Z,68
2023-02-18T07:42:07.867Z,68
2023-02-18T07:43:23.540Z,68
2023-02-18T07:44:25.956Z,68
2023-02-18T07:45:52.857Z,68
2023-02-18T07:47:32.700Z,68
2023-02-18T07:48:34.969Z,68
2023-02-18T07:53:23.987Z,68
2023-02-18T07:55:52.654Z,68
2023-02-18T07:56:53.992Z,68
2023-02-18T07:57:55.400Z,68
2023-02-18T07:59:13.946Z,68
2023-02-18T08:00:52.771Z,69
2023-02-18T08:03:23.273Z,69
2023-02-18T08:04:25.472Z,69
2023-02-18T08:05:27.721Z,69
2023-02-18T08:06:44.546Z,69
2023-02-18T08:08:22.982Z,69
2023-02-18T08:10:04.089Z,69
2023-02-18T08:11:16.972Z,69
2023-02-18T08:12:32.820Z,69
2023-02-18T08:13:35.170Z,69
2023-02-18T08:14:37.580Z,69
2023-02-18T08:15:39.883Z,69
2023-02-18T08:17:34.304Z,69
2023-02-18T08:18:36.616Z,69
2023-02-18T08:20:02.968Z,69
2023-02-18T08:21:44.374Z,69
2023-02-18T08:23:23.786Z,69
2023-02-18T08:24:26.063Z,69
2023-02-18T08:25:52.759Z,69
2023-02-18T08:27:00.622Z,69
2023-02-18T08:28:02.489Z,69
2023-02-18T08:30:02.706Z,69
2023-02-18T08:31:04.218Z,69
2023-02-18T08:33:23.880Z,69
2023-02-18T08:35:03.886Z,69
2023-02-18T08:36:43.969Z,69
2023-02-18T08:38:24.020Z,69
2023-02-18T08:39:26.502Z,69
2023-02-18T08:40:28.066Z,69
2023-02-18T08:41:30.379Z,69
2023-02-18T08:44:13.752Z,69
2023-02-18T08:45:52.740Z,70
2023-02-18T08:46:54.281Z,70
2023-02-18T08:48:13.308Z,70
2023-02-18T08:49:21.752Z,70
2023-02-18T08:50:23.188Z,70
2023-02-18T08:51:25.670Z,70
2023-02-18T08:54:13.859Z,70
2023-02-18T08:55:16.346Z,70
2023-02-18T08:56:43.525Z,70
2023-02-18T08:58:24.014Z,70
2023-02-18T09:02:33.921Z,70
2023-02-18T09:03:36.210Z,70
2023-02-18T09:05:03.111Z,70
2023-02-18T09:06:05.296Z,70
2023-02-18T09:09:13.652Z,70
2023-02-18T09:10:16.101Z,70
2023-02-18T09:11:18.544Z,70
2023-02-18T09:12:20.719Z,70
2023-02-18T09:13:22.634Z,70
2023-02-18T09:15:03.086Z,70
2023-02-18T09:16:04.633Z,70
2023-02-18T09:20:52.818Z,69
2023-02-18T09:21:54.203Z,69
2023-02-18T09:23:23.689Z,69
2023-02-18T09:24:26.082Z,69
2023-02-18T09:25:28.319Z,69
2023-02-18T09:27:33.761Z,69
2023-02-18T09:29:14.014Z,69
2023-02-18T09:31:43.792Z,69
2023-02-18T09:32:46.190Z,69
2023-02-18T09:33:48.450Z,69
2023-02-18T09:34:50.696Z,68
2023-02-18T09:35:53.068Z,68
2023-02-18T09:36:54.528Z,69
2023-02-18T09:38:23.720Z,68
2023-02-18T09:39:26.178Z,68
2023-02-18T09:40:27.600Z,68
2023-02-18T09:41:30.074Z,68
2023-02-18T09:42:32.302Z,68
2023-02-18T09:43:34.666Z,68
2023-02-18T09:44:37.126Z,68
2023-02-18T09:45:39.504Z,68
2023-02-18T09:46:41.040Z,68
2023-02-18T09:47:43.407Z,68
2023-02-18T09:49:13.396Z,68
2023-02-18T09:50:14.826Z,68
2023-02-18T09:51:44.194Z,68
2023-02-18T09:53:23.411Z,68
2023-02-18T09:55:03.264Z,67
2023-02-18T09:56:04.674Z,67
2023-02-18T09:57:06.917Z,67
2023-02-18T09:58:23.450Z,67
2023-02-18T09:59:25.910Z,67
2023-02-18T10:00:28.253Z,67
2023-02-18T10:02:34.256Z,67
2023-02-18T10:03:36.515Z,67
2023-02-18T10:04:38.882Z,67
2023-02-18T10:05:40.298Z,67
2023-02-18T10:06:42.706Z,67
2023-02-18T10:07:45.191Z,67
2023-02-18T10:08:47.446Z,67
2023-02-18T10:10:02.860Z,67
2023-02-18T10:11:04.279Z,67
2023-02-18T10:12:05.699Z,67
2023-02-18T10:13:07.152Z,67
2023-02-18T10:14:09.621Z,67
2023-02-18T10:15:11.999Z,66
2023-02-18T10:16:14.289Z,67
2023-02-18T10:17:16.636Z,66
2023-02-18T10:18:19.170Z,67
2023-02-18T10:19:21.430Z,67
2023-02-18T10:20:23.661Z,67
2023-02-18T10:21:25.936Z,67
2023-02-18T10:22:33.612Z,66
2023-02-18T10:25:53.767Z,66
2023-02-18T10:26:55.539Z,66
2023-02-18T10:27:56.957Z,66
2023-02-18T10:28:58.330Z,66
2023-02-18T10:29:59.710Z,66
2023-02-18T10:31:01.187Z,66
2023-02-18T10:32:02.744Z,65
2023-02-18T10:33:04.163Z,65
2023-02-18T10:34:05.641Z,65
2023-02-18T10:35:07.061Z,65
2023-02-18T10:36:08.469Z,65
2023-02-18T10:37:10.891Z,65
2023-02-18T10:38:12.440Z,64
2023-02-18T10:39:13.912Z,64
2023-02-18T10:40:54.031Z,64
2023-02-18T10:42:33.987Z,64
2023-02-18T10:45:02.542Z,64
2023-02-18T10:46:03.911Z,64
2023-02-18T10:47:06.217Z,64
2023-02-18T10:48:07.615Z,64
2023-02-18T10:49:09.979Z,64
2023-02-18T10:50:11.385Z,64
2023-02-18T10:51:13.668Z,64
2023-02-18T10:52:15.985Z,64
2023-02-18T10:53:23.819Z,63
2023-02-18T10:54:26.057Z,63
2023-02-18T10:55:28.560Z,63
2023-02-18T10:56:30.980Z,63
2023-02-18T10:57:33.467Z,63
2023-02-18T10:59:13.744Z,63
2023-02-18T11:00:16.476Z,63
2023-02-18T11:01:18.754Z,63
2023-02-18T11:02:32.585Z,63
2023-02-18T11:03:34.036Z,63
2023-02-18T11:05:54.248Z,62
2023-02-18T11:06:56.541Z,62
2023-02-18T11:08:23.750Z,62
2023-02-18T11:09:26.066Z,62
2023-02-18T11:10:28.470Z,62
2023-02-18T11:11:31.146Z,62
2023-02-18T11:12:33.399Z,62
2023-02-18T11:15:53.674Z,61
2023-02-18T11:16:56.141Z,61
2023-02-18T11:18:24.068Z,61
2023-02-18T11:19:25.487Z,61
2023-02-18T11:20:26.899Z,61
2023-02-18T11:21:28.288Z,60
2023-02-18T11:22:30.520Z,60
2023-02-18T11:24:12.647Z,60
2023-02-18T11:25:54.262Z,61
2023-02-18T11:26:56.700Z,61
2023-02-18T11:28:23.377Z,61
2023-02-18T11:30:02.966Z,61
2023-02-18T11:31:05.465Z,61
2023-02-18T11:32:07.039Z,60
2023-02-18T11:33:23.355Z,60
2023-02-18T11:35:02.453Z,60
2023-02-18T11:36:03.836Z,61
2023-02-18T11:37:32.517Z,61
2023-02-18T11:41:42.816Z,60
2023-02-18T11:42:44.297Z,60
2023-02-18T11:43:46.572Z,60
2023-02-18T11:46:42.506Z,59
2023-02-18T11:47:43.974Z,59
2023-02-18T11:48:45.390Z,59
2023-02-18T11:50:02.815Z,59
2023-02-18T11:51:06.279Z,59
2023-02-18T11:52:08.467Z,59
2023-02-18T11:53:09.865Z,60
2023-02-18T11:54:11.270Z,60
2023-02-18T11:55:12.673Z,59
2023-02-18T11:56:14.042Z,59
2023-02-18T11:57:15.655Z,59
2023-02-18T11:58:22.802Z,59
2023-02-18T12:00:02.808Z,59
2023-02-18T12:01:04.220Z,58
2023-02-18T12:02:05.638Z,58
2023-02-18T12:03:22.840Z,58
2023-02-18T12:04:24.382Z,58
2023-02-18T12:05:26.252Z,58
2023-02-18T12:06:27.701Z,58
2023-02-18T12:07:33.071Z,58
2023-02-18T12:08:34.475Z,58
2023-02-18T12:09:36.084Z,58
2023-02-18T12:10:37.511Z,58
2023-02-18T12:14:13.506Z,57
2023-02-18T12:15:52.473Z,56
2023-02-18T12:18:22.807Z,54
2023-02-18T12:19:24.441Z,55
2023-02-18T12:20:26.390Z,54
2023-02-18T12:22:33.071Z,54
2023-02-18T12:23:34.471Z,53
2023-02-18T12:24:35.945Z,53
2023-02-18T12:25:37.344Z,54
2023-02-18T12:26:38.745Z,52
2023-02-18T12:28:22.774Z,51
2023-02-18T12:29:24.202Z,50
2023-02-18T12:30:25.740Z,51
2023-02-18T12:31:28.143Z,51
2023-02-18T12:32:29.596Z,51
2023-02-18T12:33:30.982Z,51
2023-02-18T12:35:02.605Z,51
2023-02-18T12:36:05.417Z,51
2023-02-18T12:37:06.935Z,50
2023-02-18T12:38:08.470Z,50
2023-02-18T12:39:10.424Z,50
2023-02-18T12:40:11.866Z,50
2023-02-18T12:41:42.633Z,51
2023-02-18T12:42:44.055Z,51
2023-02-18T12:43:46.572Z,50
2023-02-18T12:44:49.083Z,50
2023-02-18T12:50:03.973Z,50
2023-02-18T12:51:05.332Z,50
2023-02-18T12:52:06.714Z,49
2023-02-18T12:53:08.074Z,49
2023-02-18T12:54:13.235Z,49
2023-02-18T12:55:14.626Z,49
2023-02-18T12:56:16.068Z,49
2023-02-18T12:57:17.487Z,50
2023-02-18T12:58:20.116Z,49
2023-02-18T12:59:22.423Z,49
2023-02-18T13:01:42.745Z,49
2023-02-18T13:02:44.134Z,49
2023-02-18T13:03:47.085Z,49
2023-02-18T13:04:48.547Z,50
2023-02-18T13:05:52.453Z,49
2023-02-18T13:06:53.894Z,49
2023-02-18T13:07:55.421Z,49
2023-02-18T13:08:56.996Z,49
2023-02-18T13:09:58.409Z,48
2023-02-18T13:11:00.512Z,49
2023-02-18T13:12:02.868Z,49
2023-02-18T13:13:04.264Z,50
2023-02-18T13:14:12.903Z,47
2023-02-18T13:15:14.308Z,47
2023-02-18T13:16:15.704Z,48
2023-02-18T13:17:32.422Z,48
2023-02-18T13:18:33.832Z,48
2023-02-18T13:19:36.775Z,48
2023-02-18T13:20:52.875Z,47
2023-02-18T13:21:54.243Z,47
2023-02-18T13:22:55.633Z,48
2023-02-18T13:23:57.038Z,48
2023-02-18T13:24:58.519Z,48
2023-02-18T13:26:01.239Z,48
2023-02-18T13:27:02.708Z,48
2023-02-18T13:28:04.992Z,48
2023-02-18T13:29:06.410Z,47
2023-02-18T13:30:08.564Z,48
2023-02-18T13:31:42.568Z,48
2023-02-18T13:33:22.578Z,47
2023-02-18T13:34:24.029Z,46
2023-02-18T13:35:25.396Z,46
2023-02-18T13:36:27.761Z,47
2023-02-18T13:37:29.268Z,46
2023-02-18T13:38:30.680Z,47
2023-02-18T13:42:33.056Z,47
2023-02-18T13:43:34.526Z,46
2023-02-18T13:44:35.946Z,47
2023-02-18T13:45:37.387Z,46
2023-02-18T13:46:43.190Z,46
2023-02-18T13:47:44.866Z,46
2023-02-18T13:49:12.466Z,46
2023-02-18T13:50:13.864Z,46
2023-02-18T13:51:15.282Z,46
2023-02-18T13:52:32.451Z,46
2023-02-18T13:53:33.825Z,46
2023-02-18T13:54:36.168Z,46
2023-02-18T13:55:38.539Z,47
2023-02-18T13:56:40.865Z,47
2023-02-18T13:57:43.375Z,47
2023-02-18T13:58:44.794Z,47
2023-02-18T14:00:02.628Z,46
2023-02-18T14:01:04.041Z,46
2023-02-18T14:02:05.488Z,47
2023-02-18T14:03:07.111Z,46
2023-02-18T14:04:08.517Z,47
2023-02-18T14:06:43.851Z,47
2023-02-18T14:07:46.221Z,47
2023-02-18T14:08:48.859Z,46
2023-02-18T14:09:51.338Z,46
2023-02-18T14:10:53.747Z,46
2023-02-18T14:11:55.210Z,45
2023-02-18T14:12:56.627Z,45
2023-02-18T14:13:59.068Z,45
2023-02-18T14:15:03.396Z,45
2023-02-18T14:16:06.090Z,45
2023-02-18T14:17:07.515Z,45
2023-02-18T14:18:08.921Z,45
2023-02-18T14:19:10.336Z,46
2023-02-18T14:20:11.714Z,46
2023-02-18T14:21:13.120Z,46
2023-02-18T14:22:14.491Z,45
2023-02-18T14:23:15.910Z,45
2023-02-18T14:24:17.369Z,45
2023-02-18T14:25:18.788Z,45
2023-02-18T14:26:42.641Z,44
2023-02-18T14:27:44.019Z,44
2023-02-18T14:29:12.840Z,45
2023-02-18T14:30:52.448Z,46
2023-02-18T14:33:22.502Z,45
2023-02-18T14:34:23.940Z,45
2023-02-18T14:35:53.324Z,45
2023-02-18T14:37:32.423Z,45
2023-02-18T14:38:34.795Z,45
2023-02-18T14:39:37.070Z,45
2023-02-18T14:40:39.550Z,45
2023-02-18T14:41:42.192Z,45
2023-02-18T14:42:44.498Z,44
2023-02-18T14:43:47.000Z,44
2023-02-18T14:44:48.503Z,45
2023-02-18T14:45:50.840Z,45
2023-02-18T14:46:52.283Z,45
2023-02-18T14:47:54.018Z,45
2023-02-18T14:49:12.331Z,45
2023-02-18T14:50:13.748Z,45
2023-02-18T14:51:15.162Z,45
2023-02-18T14:52:16.631Z,45
2023-02-18T14:53:18.054Z,45
2023-02-18T14:54:19.505Z,44
2023-02-18T14:55:20.932Z,45
2023-02-18T14:56:22.349Z,45
2023-02-18T14:57:33.269Z,44
2023-02-18T14:58:35.784Z,44
2023-02-18T14:59:38.065Z,45
2023-02-18T15:00:40.315Z,45
2023-02-18T15:01:43.721Z,45
2023-02-18T15:05:02.611Z,46
2023-02-18T15:06:06.484Z,46
2023-02-18T15:08:23.322Z,47
2023-02-18T15:09:25.776Z,46
2023-02-18T15:10:28.005Z,46
2023-02-18T15:11:29.435Z,46
2023-02-18T15:12:33.629Z,46
2023-02-18T15:13:35.980Z,46
2023-02-18T15:15:03.314Z,46
2023-02-18T15:16:43.194Z,46
2023-02-18T15:17:45.411Z,46
2023-02-18T15:18:48.921Z,46
2023-02-18T15:19:51.425Z,47
2023-02-18T15:20:53.703Z,47
2023-02-18T15:23:22.671Z,47
2023-02-18T15:24:24.060Z,47
2023-02-18T15:25:25.498Z,47
2023-02-18T15:26:27.837Z,47
2023-02-18T15:27:33.503Z,47
2023-02-18T15:28:35.821Z,47
2023-02-18T15:29:38.130Z,47
2023-02-18T15:32:33.586Z,48
2023-02-18T15:33:35.894Z,48
2023-02-18T15:34:37.435Z,48
2023-02-18T15:35:53.505Z,47
2023-02-18T15:37:33.467Z,48
2023-02-18T15:38:35.000Z,48
2023-02-18T15:40:52.341Z,48
2023-02-18T15:41:54.784Z,48
2023-02-18T15:42:57.164Z,48
2023-02-18T15:43:59.492Z,48
2023-02-18T15:45:01.828Z,48
2023-02-18T15:46:03.273Z,48
2023-02-18T15:47:05.584Z,48
2023-02-18T15:48:22.561Z,48
2023-02-18T15:49:23.983Z,48
2023-02-18T15:50:25.411Z,48
2023-02-18T15:51:26.834Z,48
2023-02-18T15:52:28.232Z,48
2023-02-18T15:53:30.412Z,48
2023-02-18T15:54:32.641Z,48
2023-02-18T15:55:53.678Z,49
2023-02-18T15:56:55.131Z,49
2023-02-18T15:57:56.510Z,49
2023-02-18T15:59:13.217Z,49
2023-02-18T16:00:52.347Z,49
2023-02-18T16:03:22.324Z,49
2023-02-18T16:04:23.739Z,49
2023-02-18T16:05:25.144Z,49
2023-02-18T16:06:26.549Z,49
2023-02-18T16:07:27.963Z,49
2023-02-18T16:08:29.442Z,49
2023-02-18T16:09:31.726Z,49
2023-02-18T16:12:32.311Z,49
2023-02-18T16:13:34.741Z,49
2023-02-18T16:14:36.995Z,49
2023-02-18T16:15:38.862Z,49
2023-02-18T16:16:40.303Z,49
2023-02-18T16:17:42.760Z,49
2023-02-18T16:19:13.076Z,49
2023-02-18T16:20:15.619Z,49
2023-02-18T16:21:17.025Z,49
2023-02-18T16:22:18.586Z,49
2023-02-18T16:23:22.456Z,49
2023-02-18T16:24:23.898Z,49
2023-02-18T16:25:25.330Z,49
2023-02-18T16:27:33.362Z,49
2023-02-18T16:30:03.913Z,49
2023-02-18T16:31:05.348Z,49
2023-02-18T16:32:32.399Z,49
2023-02-18T16:33:34.642Z,49
2023-02-18T16:34:36.948Z,49
2023-02-18T16:35:49.392Z,49
2023-02-18T16:36:52.590Z,49
2023-02-18T16:37:54.850Z,49
2023-02-18T16:38:57.129Z,49
2023-02-18T16:39:59.466Z,50
2023-02-18T16:41:00.860Z,50
2023-02-18T16:42:03.120Z,50
2023-02-18T16:43:05.460Z,50
2023-02-18T16:44:13.925Z,50
2023-02-18T16:45:53.072Z,50
2023-02-18T16:46:54.492Z,50
2023-02-18T16:47:56.709Z,50
2023-02-18T16:48:58.958Z,50
2023-02-18T16:50:01.201Z,50
2023-02-18T16:51:03.403Z,50
2023-02-18T16:52:05.800Z,50
2023-02-18T16:53:08.043Z,50
2023-02-18T16:54:13.623Z,50
2023-02-18T16:55:15.861Z,50
2023-02-18T16:56:43.293Z,50
2023-02-18T16:57:47.472Z,50
2023-02-18T16:58:50.525Z,49
2023-02-18T16:59:52.906Z,50
2023-02-18T17:00:55.270Z,50
2023-02-18T17:03:22.375Z,50
2023-02-18T17:05:03.299Z,50
2023-02-18T17:07:32.226Z,50
2023-02-18T17:10:02.295Z,50
2023-02-18T17:11:03.730Z,49
2023-02-18T17:12:05.928Z,50
2023-02-18T17:13:07.369Z,49
2023-02-18T17:14:13.390Z,49
2023-02-18T17:15:15.751Z,49
2023-02-18T17:16:18.197Z,49
2023-02-18T17:17:19.680Z,49
2023-02-18T17:18:22.840Z,49
2023-02-18T17:19:25.476Z,49
2023-02-18T17:20:26.887Z,49
2023-02-18T17:28:24.547Z,49
2023-02-18T17:30:52.975Z,49
2023-02-18T17:31:54.390Z,49
2023-02-18T17:32:56.257Z,49
2023-02-18T17:34:13.487Z,48
2023-02-18T17:35:15.857Z,48
2023-02-18T17:36:17.287Z,48
2023-02-18T17:38:22.822Z,49
2023-02-18T17:39:24.201Z,49
2023-02-18T17:40:25.640Z,49
2023-02-18T17:41:43.108Z,48
2023-02-18T17:43:22.924Z,48
2023-02-18T17:44:24.316Z,48
2023-02-18T17:51:42.214Z,48
2023-02-18T17:52:44.505Z,48
2023-02-18T17:54:12.961Z,48
2023-02-18T17:55:15.491Z,48
2023-02-18T17:56:17.819Z,48
2023-02-18T17:57:20.303Z,48
2023-02-18T17:58:21.885Z,48
2023-02-18T17:59:23.250Z,48
2023-02-18T18:00:24.595Z,48
2023-02-18T18:01:42.352Z,48
2023-02-18T18:02:43.805Z,48
2023-02-18T18:03:45.230Z,48
2023-02-18T18:05:02.151Z,49
2023-02-18T18:06:05.071Z,48
2023-02-18T18:07:06.462Z,49
2023-02-18T18:08:22.138Z,49
2023-02-18T18:09:23.537Z,49
2023-02-18T18:10:24.902Z,49
2023-02-18T18:11:42.153Z,49
2023-02-18T18:12:43.563Z,49
2023-02-18T18:13:45.383Z,49
2023-02-18T18:14:46.836Z,49
2023-02-18T18:15:48.215Z,49
2023-02-18T18:17:32.853Z,49
2023-02-18T18:18:34.686Z,49
2023-02-18T18:20:02.656Z,50